Time;durP1;ratioP1;P1;durP2;ratioP2;P2;SDS_P1;SDS_P2;PMS_P1;PMS_P2;Temp;Humidity;BMP_temperature;BMP_pressure;BME280_temperature;BME280_humidity;BME280_pressure;Samples;Min_cycle;Max_cycle;Signal;HPM_P1;HPM_P2
2023/04/18 00:00:31;;;;;;;6.68;4.18;;;;;;;10.62;73.12;98655.81;5093385;28;20114;-48
2023/04/18 00:02:57;;;;;;;5.55;3.92;;;;;;;10.47;73.90;98656.81;5110284;28;20413;-48
2023/04/18 00:05:22;;;;;;;9.80;4.70;;;;;;;10.33;74.25;98648.09;5094546;28;20392;-48
2023/04/18 00:07:48;;;;;;;6.90;4.32;;;;;;;10.24;74.75;98661.56;5110472;28;20073;-48
2023/04/18 00:10:14;;;;;;;8.23;4.10;;;;;;;10.14;75.21;98660.16;5110192;28;20024;-48
2023/04/18 00:12:40;;;;;;;8.32;5.72;;;;;;;10.04;74.95;98658.88;5093073;28;20017;-48
2023/04/18 00:15:08;;;;;;;9.98;4.78;;;;;;;9.80;74.77;98656.59;5094395;28;20039;-48
2023/04/18 00:17:34;;;;;;;10.73;4.70;;;;;;;9.72;75.56;98651.53;5094548;28;20489;-48
2023/04/18 00:20:03;;;;;;;14.93;5.10;;;;;;;9.72;76.11;98653.34;5110004;28;20062;-48
2023/04/18 00:22:29;;;;;;;8.52;4.43;;;;;;;9.71;76.25;98647.28;5109818;28;20106;-48
2023/04/18 00:24:54;;;;;;;9.85;4.88;;;;;;;9.68;76.11;98647.69;5092899;28;20054;-48
2023/04/18 00:27:20;;;;;;;9.63;5.85;;;;;;;9.55;75.46;98651.03;5094203;28;20098;-48
2023/04/18 00:29:47;;;;;;;23.73;21.40;;;;;;;9.31;74.85;98651.53;5109875;28;20028;-48
2023/04/18 00:32:13;;;;;;;16.55;13.48;;;;;;;9.05;74.79;98650.34;5093819;28;20114;-48
2023/04/18 00:34:39;;;;;;;18.48;16.67;;;;;;;8.86;76.28;98651.84;5094057;28;20558;-48
2023/04/18 00:37:08;;;;;;;14.80;9.40;;;;;;;8.77;77.28;98655.59;5094049;28;20039;-48
2023/04/18 00:39:34;;;;;;;9.40;7.57;;;;;;;8.76;78.11;98648.75;5109667;28;20405;-48
2023/04/18 00:42:01;;;;;;;7.25;5.05;;;;;;;8.80;78.76;98653.41;5094031;28;20032;-48
2023/04/18 00:44:27;;;;;;;7.05;6.10;;;;;;;8.86;78.57;98646.59;5093872;28;20038;-48
2023/04/18 00:46:53;;;;;;;7.95;5.22;;;;;;;8.85;78.17;98650.22;5093774;28;20024;-48
2023/04/18 00:49:19;;;;;;;13.88;5.95;;;;;;;8.80;78.69;98648.16;5093748;28;20034;-48
2023/04/18 00:51:45;;;;;;;9.57;4.53;;;;;;;8.82;79.21;98650.59;5093727;28;20024;-48
2023/04/18 00:54:12;;;;;;;7.43;4.47;;;;;;;8.88;79.21;98647.22;5109149;28;20034;-48
2023/04/18 00:56:38;;;;;;;11.27;5.47;;;;;;;8.90;79.59;98634.75;5093660;28;20031;-48
2023/04/18 00:59:09;;;;;;;9.35;5.28;;;;;;;8.98;79.74;98641.66;5109248;28;20353;-48
2023/04/18 01:01:34;;;;;;;6.75;4.40;;;;;;;9.06;79.57;98638.91;5092208;28;20024;-48
2023/04/18 01:04:00;;;;;;;6.78;3.72;;;;;;;9.08;79.45;98644.75;5093496;28;20034;-48
2023/04/18 01:06:26;;;;;;;8.38;4.35;;;;;;;9.08;79.13;98652.59;5109083;28;20059;-48
2023/04/18 01:08:53;;;;;;;10.02;5.63;;;;;;;8.93;78.42;98644.03;5093309;28;20043;-48
2023/04/18 01:11:19;;;;;;;22.10;6.55;;;;;;;8.86;78.24;98654.47;5109056;28;20023;-48
2023/04/18 01:14:06;;;;;;;11.00;5.85;;;;;;;8.77;77.76;98645.94;5108986;28;20127;-48
2023/04/18 01:16:32;;;;;;;43.13;7.22;;;;;;;8.64;78.46;98645.03;5108863;28;20081;-48
2023/04/18 01:18:59;;;;;;;13.30;6.53;;;;;;;8.53;78.02;98647.16;5108916;28;20028;-48
2023/04/18 01:21:25;;;;;;;20.50;5.90;;;;;;;8.48;78.04;98648.72;5093115;28;20107;-48
2023/04/18 01:23:52;;;;;;;33.53;6.90;;;;;;;8.30;77.98;98651.72;5108836;28;20438;-48
2023/04/18 01:26:18;;;;;;;50.22;7.53;;;;;;;8.27;78.95;98645.06;5093093;28;20104;-48
2023/04/18 01:28:44;;;;;;;9.80;5.22;;;;;;;8.32;79.10;98649.75;5093048;28;20051;-48
2023/04/18 01:31:10;;;;;;;8.77;5.18;;;;;;;8.16;78.29;98641.13;5108469;28;20157;-48
2023/04/18 01:33:36;;;;;;;9.93;5.68;;;;;;;7.95;78.79;98654.19;5108660;28;20070;-48
2023/04/18 01:36:01;;;;;;;10.93;5.75;;;;;;;7.82;79.57;98651.41;5092906;28;20032;-48
2023/04/18 01:38:27;;;;;;;13.63;5.88;;;;;;;7.80;80.40;98652.38;5093000;28;20031;-48
2023/04/18 01:40:53;;;;;;;19.50;6.28;;;;;;;7.86;81.03;98644.81;5108502;28;20497;-47
2023/04/18 01:43:18;;;;;;;10.25;5.30;;;;;;;7.92;81.08;98647.50;5092779;28;20024;-48
2023/04/18 01:45:44;;;;;;;6.75;5.05;;;;;;;7.98;81.66;98643.34;5108473;28;20024;-48
2023/04/18 01:48:10;;;;;;;11.35;5.80;;;;;;;8.04;81.61;98652.25;5091573;28;20145;-49
2023/04/18 01:50:35;;;;;;;10.52;5.47;;;;;;;8.11;81.79;98648.72;5108394;28;20114;-48
2023/04/18 01:53:01;;;;;;;14.27;5.13;;;;;;;8.16;81.83;98648.97;5108347;28;20023;-48
2023/04/18 01:55:27;;;;;;;6.32;4.63;;;;;;;8.20;81.72;98645.00;5092526;28;20481;-48
2023/04/18 01:57:52;;;;;;;10.43;4.57;;;;;;;8.23;81.92;98645.59;5108255;28;20098;-48
2023/04/18 02:00:18;;;;;;;8.20;4.55;;;;;;;8.30;82.17;98649.13;5092347;28;20110;-48
2023/04/18 02:02:44;;;;;;;14.35;5.25;;;;;;;8.39;82.09;98648.81;5092410;28;20103;-48
2023/04/18 02:05:10;;;;;;;7.03;4.68;;;;;;;8.46;81.58;98650.69;5092275;28;20111;-48
2023/04/18 02:07:35;;;;;;;13.13;5.25;;;;;;;8.46;81.32;98648.88;5107559;28;20199;-48
2023/04/18 02:10:02;;;;;;;12.40;5.95;;;;;;;8.41;81.12;98643.44;5092365;28;20540;-48
2023/04/18 02:12:27;;;;;;;11.13;4.85;;;;;;;8.35;81.06;98644.13;5092342;28;20436;-48
2023/04/18 02:14:53;;;;;;;10.88;6.13;;;;;;;8.28;80.69;98641.44;5092372;28;20032;-48
2023/04/18 02:17:20;;;;;;;15.65;5.25;;;;;;;8.18;80.81;98641.75;5107821;28;20031;-48
2023/04/18 02:19:46;;;;;;;7.20;5.30;;;;;;;8.08;80.46;98649.09;5092298;28;20048;-48
2023/04/18 02:22:12;;;;;;;14.00;6.35;;;;;;;7.98;80.54;98646.75;5092063;28;20028;-48
2023/04/18 02:24:38;;;;;;;7.90;4.97;;;;;;;7.93;80.84;98645.72;5092116;28;20046;-47
2023/04/18 02:27:04;;;;;;;9.30;5.75;;;;;;;7.94;81.26;98647.31;5092135;28;20050;-48
2023/04/18 02:29:29;;;;;;;24.05;7.53;;;;;;;7.91;81.20;98642.47;5092011;28;20081;-48
2023/04/18 02:31:57;;;;;;;9.77;5.20;;;;;;;7.95;81.66;98641.91;5091959;28;20052;-48
2023/04/18 02:34:22;;;;;;;7.72;5.72;;;;;;;8.03;82.32;98641.00;5092017;28;20024;-48
2023/04/18 02:36:48;;;;;;;8.88;5.10;;;;;;;8.05;81.91;98638.19;5092248;28;20040;-48
2023/04/18 02:39:14;;;;;;;9.45;5.30;;;;;;;8.09;82.58;98637.66;5107676;28;20401;-48
2023/04/18 02:41:39;;;;;;;26.10;6.40;;;;;;;8.16;82.52;98641.13;5091971;28;20035;-48
2023/04/18 02:44:05;;;;;;;11.50;5.95;;;;;;;8.22;82.48;98631.72;5091988;28;20020;-48
2023/04/18 02:46:31;;;;;;;25.40;6.47;;;;;;;8.26;82.69;98630.38;5090813;28;20024;-48
2023/04/18 02:48:57;;;;;;;14.55;6.40;;;;;;;8.29;82.17;98642.25;5092015;28;20068;-48
2023/04/18 02:51:23;;;;;;;8.20;6.18;;;;;;;8.33;82.27;98635.66;5091935;28;20023;-48
2023/04/18 02:53:53;;;;;;;9.85;6.45;;;;;;;8.37;82.71;98635.09;5107614;28;20039;-48
2023/04/18 02:56:20;;;;;;;24.92;7.80;;;;;;;8.40;82.30;98642.56;5092036;28;20506;-48
2023/04/18 02:58:46;;;;;;;14.70;5.90;;;;;;;8.52;82.54;98640.28;5091895;28;20020;-47
2023/04/18 03:01:12;;;;;;;9.40;5.47;;;;;;;8.65;82.54;98639.59;5107378;28;20028;-48
2023/04/18 03:03:38;;;;;;;16.88;5.85;;;;;;;8.82;82.37;98649.81;5091801;28;20039;-48
2023/04/18 03:06:03;;;;;;;7.60;5.25;;;;;;;8.91;82.04;98641.59;5092042;28;20042;-48
2023/04/18 03:08:29;;;;;;;10.18;5.30;;;;;;;9.00;81.74;98645.69;5107379;28;20048;-48
2023/04/18 03:10:55;;;;;;;14.80;5.72;;;;;;;9.04;81.27;98648.75;5107331;28;20107;-48
2023/04/18 03:13:20;;;;;;;5.93;5.03;;;;;;;9.09;81.44;98640.31;5091624;28;20038;-48
2023/04/18 03:15:46;;;;;;;14.40;6.13;;;;;;;9.18;81.44;98644.41;5107242;28;20079;-48
2023/04/18 03:18:12;;;;;;;12.18;6.18;;;;;;;9.24;81.05;98648.88;5109781;28;20525;-48
2023/04/18 03:20:38;;;;;;;8.65;5.97;;;;;;;9.30;80.48;98642.88;5095528;28;20055;-48
2023/04/18 03:23:04;;;;;;;11.65;6.13;;;;;;;9.29;80.25;98645.66;5111037;28;20103;-48
2023/04/18 03:25:30;;;;;;;15.63;6.18;;;;;;;9.30;80.22;98642.88;5095762;28;20489;-48
2023/04/18 03:27:55;;;;;;;10.02;6.38;;;;;;;9.32;79.97;98638.25;5095392;28;20031;-48
2023/04/18 03:30:21;;;;;;;11.48;5.93;;;;;;;9.30;79.94;98644.69;5093851;28;20104;-48
2023/04/18 03:32:47;;;;;;;17.17;6.78;;;;;;;9.28;79.45;98644.88;5095605;28;20105;-48
2023/04/18 03:35:14;;;;;;;8.10;5.28;;;;;;;9.32;79.38;98640.06;5093826;28;20032;-48
2023/04/18 03:37:40;;;;;;;12.20;6.38;;;;;;;9.34;78.91;98644.09;5095127;28;20019;-48
2023/04/18 03:40:09;;;;;;;9.70;6.53;;;;;;;9.36;78.52;98636.84;5095104;28;20027;-48
2023/04/18 03:42:35;;;;;;;11.73;7.30;;;;;;;9.37;78.35;98635.03;5094886;28;20027;-49
2023/04/18 03:45:00;;;;;;;8.07;5.95;;;;;;;9.39;78.04;98635.66;5095028;28;20036;-48
2023/04/18 03:47:26;;;;;;;11.35;6.82;;;;;;;9.41;77.77;98644.13;5095237;28;20039;-48
2023/04/18 03:49:53;;;;;;;7.72;6.07;;;;;;;9.50;78.00;98637.75;5110651;28;20027;-48
2023/04/18 03:52:19;;;;;;;21.42;7.55;;;;;;;9.63;77.53;98641.41;5094908;28;20073;-49
2023/04/18 03:54:44;;;;;;;10.32;6.78;;;;;;;9.69;76.78;98640.63;5110492;28;20016;-48
2023/04/18 03:57:10;;;;;;;11.63;6.78;;;;;;;9.75;76.49;98642.47;5094782;28;20016;-48
2023/04/18 03:59:36;;;;;;;16.85;6.35;;;;;;;9.78;76.08;98639.47;5094675;28;20024;-48
2023/04/18 04:02:01;;;;;;;18.85;7.55;;;;;;;9.86;76.06;98648.94;5094594;28;20387;-48
2023/04/18 04:04:27;;;;;;;7.15;6.07;;;;;;;9.98;76.43;98639.53;5110374;28;20130;-48
2023/04/18 04:06:53;;;;;;;6.93;6.25;;;;;;;10.12;76.03;98645.59;5093330;28;20111;-49
2023/04/18 04:09:19;;;;;;;17.98;7.63;;;;;;;10.22;75.31;98646.03;5110173;28;20096;-48
2023/04/18 04:11:45;;;;;;;11.57;7.43;;;;;;;10.30;74.80;98642.44;5110211;28;20066;-48
2023/04/18 04:14:10;;;;;;;12.50;7.00;;;;;;;10.40;75.19;98645.47;5094341;28;20028;-48
2023/04/18 04:16:36;;;;;;;26.95;7.93;;;;;;;10.47;74.93;98650.75;5094385;28;20394;-49
2023/04/18 04:19:03;;;;;;;9.65;6.00;;;;;;;10.57;74.73;98646.72;5094351;28;20096;-48
2023/04/18 04:21:30;;;;;;;10.93;6.90;;;;;;;10.60;73.87;98642.88;5092948;28;20024;-48
2023/04/18 04:23:56;;;;;;;17.00;7.18;;;;;;;10.64;73.39;98648.53;5094200;28;20036;-48
2023/04/18 04:26:22;;;;;;;9.05;7.18;;;;;;;10.71;73.09;98650.16;5094212;28;20103;-48
2023/04/18 04:28:52;;;;;;;13.80;7.28;;;;;;;10.77;72.49;98651.19;5093577;28;20032;-48
2023/04/18 04:31:18;;;;;;;31.48;9.32;;;;;;;10.84;72.69;98651.97;5109604;28;20044;-48
2023/04/18 04:33:44;;;;;;;22.48;9.15;;;;;;;10.91;72.33;98651.97;5094062;28;20046;-49
2023/04/18 04:36:13;;;;;;;10.27;7.40;;;;;;;10.93;71.84;98653.38;5094104;28;20020;-48
2023/04/18 04:38:39;;;;;;;14.35;7.93;;;;;;;10.88;71.58;98647.13;5094030;28;20108;-48
2023/04/18 04:41:06;;;;;;;11.93;7.57;;;;;;;10.87;71.96;98654.19;5093884;28;20020;-48
2023/04/18 04:43:32;;;;;;;19.95;7.38;;;;;;;10.91;71.85;98655.41;5093836;28;20055;-48
2023/04/18 04:45:58;;;;;;;9.00;7.13;;;;;;;10.95;71.94;98654.00;5109504;28;20055;-48
2023/04/18 04:48:24;;;;;;;13.00;7.85;;;;;;;11.00;72.15;98654.16;5092623;28;20055;-48
2023/04/18 04:50:51;;;;;;;23.15;8.55;;;;;;;10.98;71.99;98656.19;5092462;28;20444;-48
2023/04/18 04:53:17;;;;;;;14.20;8.13;;;;;;;10.99;71.78;98657.81;5093639;28;20464;-48
2023/04/18 04:55:43;;;;;;;19.90;7.32;;;;;;;11.05;71.85;98664.09;5093612;28;20020;-48
2023/04/18 04:58:09;;;;;;;20.45;9.57;;;;;;;11.08;71.71;98662.88;5093536;28;20027;-48
2023/04/18 05:00:34;;;;;;;12.85;8.55;;;;;;;11.09;71.23;98667.91;5092282;28;20497;-48
2023/04/18 05:03:00;;;;;;;17.65;8.23;;;;;;;11.05;71.46;98661.47;5109154;28;20551;-49
2023/04/18 05:05:27;;;;;;;15.75;8.32;;;;;;;11.09;71.39;98661.88;5093387;28;20081;-48
2023/04/18 05:07:53;;;;;;;18.63;9.55;;;;;;;11.11;71.43;98667.72;5093404;28;20073;-48
2023/04/18 05:10:19;;;;;;;12.70;6.85;;;;;;;11.16;71.32;98670.53;5093314;28;20024;-48
2023/04/18 05:12:44;;;;;;;16.05;8.80;;;;;;;11.18;71.27;98671.94;5108987;28;20435;-48
2023/04/18 05:15:11;;;;;;;14.98;8.35;;;;;;;11.10;70.47;98671.34;5108842;28;20028;-48
2023/04/18 05:17:37;;;;;;;12.20;8.25;;;;;;;10.90;71.23;98669.53;5093286;28;20047;-48
2023/04/18 05:20:03;;;;;;;31.40;9.77;;;;;;;10.90;71.47;98668.72;5093149;28;20501;-48
2023/04/18 05:22:29;;;;;;;19.60;8.57;;;;;;;10.99;71.44;98670.94;5093004;28;20024;-48
2023/04/18 05:24:55;;;;;;;21.27;9.07;;;;;;;11.11;71.48;98673.78;5093080;28;20016;-48
2023/04/18 05:27:21;;;;;;;19.15;9.32;;;;;;;11.18;71.20;98681.63;5093029;28;20024;-48
2023/04/18 05:29:48;;;;;;;21.48;9.55;;;;;;;11.09;71.69;98683.69;5092983;28;20020;-48
2023/04/18 05:32:14;;;;;;;36.33;11.75;;;;;;;11.10;71.81;98679.22;5092763;28;20050;-48
2023/04/18 05:34:39;;;;;;;29.45;9.90;;;;;;;11.20;71.94;98677.78;5074740;28;20024;-48
2023/04/18 05:37:05;;;;;;;21.63;10.60;;;;;;;11.31;71.90;98679.00;5092796;28;20024;-48
2023/04/18 05:39:31;;;;;;;37.05;11.13;;;;;;;11.39;71.83;98680.59;5092841;28;20026;-48
2023/04/18 05:41:57;;;;;;;27.40;12.93;;;;;;;11.45;71.47;98679.78;5091778;28;20020;-48
2023/04/18 05:44:23;;;;;;;18.23;8.98;;;;;;;11.53;71.45;98686.63;5091334;28;20026;-48
2023/04/18 05:46:50;;;;;;;19.17;9.60;;;;;;;11.53;71.80;98689.25;5091474;28;20028;-48
2023/04/18 05:49:19;;;;;;;15.77;8.07;;;;;;;11.53;71.31;98686.63;5092582;28;20091;-48
2023/04/18 05:51:48;;;;;;;19.23;9.65;;;;;;;11.38;71.58;98692.91;5108300;28;20050;-48
2023/04/18 05:54:13;;;;;;;12.40;8.95;;;;;;;11.25;70.97;98697.38;5092405;28;20024;-48
2023/04/18 05:56:39;;;;;;;19.02;9.18;;;;;;;11.06;71.67;98693.78;5092304;28;20042;-48
2023/04/18 05:59:05;;;;;;;17.90;8.68;;;;;;;11.06;71.68;98707.69;5092483;28;20031;-48
2023/04/18 06:01:31;;;;;;;18.63;10.95;;;;;;;10.98;71.68;98700.84;5092379;28;20485;-48
2023/04/18 06:03:57;;;;;;;22.67;11.82;;;;;;;11.00;71.87;98698.81;5092389;28;20535;-48
2023/04/18 06:06:23;;;;;;;14.10;8.65;;;;;;;11.11;72.25;98699.25;5092293;28;20091;-48
2023/04/18 06:08:48;;;;;;;12.02;8.35;;;;;;;11.27;71.95;98703.22;5107984;28;20425;-48
2023/04/18 06:11:14;;;;;;;18.13;9.45;;;;;;;11.49;71.66;98709.06;5107904;28;20093;-48
2023/04/18 06:13:40;;;;;;;21.30;8.73;;;;;;;11.63;70.98;98708.03;5092235;28;20050;-48
2023/04/18 06:16:07;;;;;;;21.48;8.52;;;;;;;11.74;70.62;98710.00;5092154;28;20028;-48
2023/04/18 06:18:33;;;;;;;16.35;8.63;;;;;;;12.02;69.51;98711.56;5092178;28;20024;-48
2023/04/18 06:20:58;;;;;;;13.80;9.05;;;;;;;12.26;68.67;98710.03;5090816;28;20459;-48
2023/04/18 06:23:24;;;;;;;15.52;8.68;;;;;;;12.45;68.58;98708.31;5092056;28;20028;-48
2023/04/18 06:25:50;;;;;;;16.92;8.85;;;;;;;12.55;67.95;98713.91;5092025;28;20025;-48
2023/04/18 06:28:16;;;;;;;17.05;9.05;;;;;;;12.68;67.74;98705.13;5092112;28;20020;-48
2023/04/18 06:30:41;;;;;;;17.15;8.52;;;;;;;12.86;67.56;98704.41;5107486;28;20134;-48
2023/04/18 06:33:09;;;;;;;14.98;8.35;;;;;;;12.97;66.08;98700.25;5091894;28;20024;-48
2023/04/18 06:35:36;;;;;;;13.30;8.60;;;;;;;13.12;66.14;98707.81;5092219;28;20440;-48
2023/04/18 06:38:01;;;;;;;13.52;8.35;;;;;;;13.30;65.21;98709.72;5091949;28;20032;-48
2023/04/18 06:40:27;;;;;;;14.23;9.00;;;;;;;13.37;64.25;98715.75;5091907;28;20027;-48
2023/04/18 06:42:53;;;;;;;18.95;8.55;;;;;;;13.43;64.40;98716.72;5091837;28;20549;-48
2023/04/18 06:45:18;;;;;;;22.70;9.68;;;;;;;13.38;64.53;98705.00;5091795;28;20028;-48
2023/04/18 06:47:46;;;;;;;18.23;8.90;;;;;;;13.42;63.76;98708.00;5091862;28;20031;-48
2023/04/18 06:50:13;;;;;;;20.90;9.50;;;;;;;13.50;63.90;98704.25;5091725;28;20539;-48
2023/04/18 06:52:44;;;;;;;16.92;9.18;;;;;;;13.52;63.43;98708.31;5093517;28;20031;-48
2023/04/18 06:55:13;;;;;;;23.60;9.15;;;;;;;13.72;63.16;98705.47;5095934;28;20035;-49
2023/04/18 06:57:40;;;;;;;17.75;8.80;;;;;;;13.68;62.25;98700.81;5095873;28;20493;-48
2023/04/18 07:00:07;;;;;;;24.25;9.40;;;;;;;13.56;62.28;98703.38;5095947;28;20035;-48
2023/04/18 07:02:36;;;;;;;24.42;9.43;;;;;;;13.72;62.03;98708.09;5095777;28;20085;-48
2023/04/18 07:05:01;;;;;;;12.20;7.95;;;;;;;13.92;60.66;98707.88;5095720;28;20031;-48
2023/04/18 07:07:27;;;;;;;13.25;8.52;;;;;;;13.93;60.34;98706.03;5111441;28;20085;-48
2023/04/18 07:09:53;;;;;;;13.02;8.55;;;;;;;13.92;59.96;98705.22;5094741;28;20047;-48
2023/04/18 07:12:20;;;;;;;20.58;8.93;;;;;;;13.86;59.23;98708.72;5111279;28;20473;-48
2023/04/18 07:14:45;;;;;;;14.20;8.10;;;;;;;13.67;59.98;98707.94;5111316;28;20058;-48
2023/04/18 07:17:11;;;;;;;17.67;8.93;;;;;;;13.57;60.13;98705.81;5111235;28;20028;-48
2023/04/18 07:19:37;;;;;;;11.00;8.85;;;;;;;13.55;59.80;98707.84;5095511;28;20027;-48
2023/04/18 07:22:03;;;;;;;16.70;9.18;;;;;;;13.49;60.27;98708.72;5111015;28;20024;-49
2023/04/18 07:24:29;;;;;;;15.38;9.07;;;;;;;13.46;60.22;98706.56;5095411;28;20109;-48
2023/04/18 07:26:54;;;;;;;19.98;8.65;;;;;;;13.56;60.19;98712.13;5111089;28;20473;-48
2023/04/18 07:29:20;;;;;;;25.35;10.65;;;;;;;13.66;59.51;98710.78;5111000;28;20028;-48
2023/04/18 07:31:46;;;;;;;13.05;8.90;;;;;;;13.60;58.89;98704.56;5095103;28;20085;-48
2023/04/18 07:34:14;;;;;;;9.13;8.23;;;;;;;13.60;59.21;98715.09;5095157;28;20169;-48
2023/04/18 07:36:40;;;;;;;17.70;8.75;;;;;;;13.64;59.04;98705.72;5095102;28;20032;-48
2023/04/18 07:39:07;;;;;;;15.43;8.85;;;;;;;13.58;59.17;98719.78;5110887;28;20089;-48
2023/04/18 07:41:33;;;;;;;13.73;9.07;;;;;;;13.57;59.33;98718.19;5095336;28;20032;-48
2023/04/18 07:44:00;;;;;;;13.70;8.88;;;;;;;13.74;58.63;98710.50;5110762;28;20165;-48
2023/04/18 07:46:26;;;;;;;16.73;9.27;;;;;;;13.89;58.24;98716.22;5094950;28;20056;-48
2023/04/18 07:48:51;;;;;;;18.05;9.30;;;;;;;14.09;58.10;98715.97;5095067;28;20107;-48
2023/04/18 07:51:17;;;;;;;11.13;8.68;;;;;;;14.01;57.33;98711.00;5110614;28;20134;-48
2023/04/18 07:53:43;;;;;;;11.48;8.45;;;;;;;14.09;57.38;98710.69;5094830;28;20028;-48
2023/04/18 07:56:13;;;;;;;15.88;8.57;;;;;;;14.51;56.34;98710.75;5094830;28;20111;-48
2023/04/18 07:58:39;;;;;;;12.90;8.57;;;;;;;15.20;55.29;98712.97;5094760;28;20038;-46
2023/04/18 08:01:06;;;;;;;14.30;8.93;;;;;;;15.91;53.91;98710.25;5110360;28;20024;-46
2023/04/18 08:03:35;;;;;;;12.32;8.30;;;;;;;16.47;51.77;98711.31;5093794;28;20031;-47
2023/04/18 08:06:01;;;;;;;13.77;8.65;;;;;;;17.31;50.78;98710.56;5094713;28;20441;-46
2023/04/18 08:08:27;;;;;;;18.73;9.82;;;;;;;18.43;47.66;98714.88;5094646;28;20516;-46
2023/04/18 08:10:53;;;;;;;16.45;8.57;;;;;;;18.96;46.58;98707.94;5094504;28;20039;-46
2023/04/18 08:13:18;;;;;;;19.83;9.65;;;;;;;18.96;44.85;98700.75;5094385;28;20497;-47
2023/04/18 08:15:45;;;;;;;18.63;9.10;;;;;;;18.62;45.49;98697.50;5094471;28;20112;-46
2023/04/18 08:18:11;;;;;;;15.65;8.50;;;;;;;18.60;45.18;98696.16;5110024;28;20067;-46
2023/04/18 08:20:37;;;;;;;9.50;8.10;;;;;;;18.33;45.50;98704.94;5094319;28;20055;-46
2023/04/18 08:23:02;;;;;;;14.02;8.00;;;;;;;18.10;45.70;98712.13;5094188;28;20039;-46
2023/04/18 08:25:28;;;;;;;21.17;12.93;;;;;;;17.82;46.55;98715.75;5094246;28;20032;-46
2023/04/18 08:27:54;;;;;;;15.35;12.63;;;;;;;17.64;47.01;98710.75;5076086;28;20068;-46
2023/04/18 08:30:20;;;;;;;17.92;11.27;;;;;;;17.67;47.32;98711.06;5093976;28;20028;-47
2023/04/18 08:32:46;;;;;;;15.93;12.18;;;;;;;17.67;47.30;98708.41;5092823;28;20024;-46
2023/04/18 08:35:11;;;;;;;25.17;11.13;;;;;;;17.54;46.69;98714.06;5094018;28;20020;-46
2023/04/18 08:37:38;;;;;;;18.02;8.40;;;;;;;17.20;47.50;98714.13;5094036;28;20044;-46
2023/04/18 08:40:06;;;;;;;13.35;8.63;;;;;;;17.03;47.58;98714.13;5109578;28;20020;-46
2023/04/18 08:42:32;;;;;;;13.25;8.15;;;;;;;17.10;47.54;98719.28;5094043;28;20429;-46
2023/04/18 08:44:59;;;;;;;18.23;7.63;;;;;;;17.34;47.58;98704.81;5109579;28;20024;-46
2023/04/18 08:47:25;;;;;;;14.27;9.23;;;;;;;17.73;46.64;98712.75;5094155;28;20503;-46
2023/04/18 08:49:52;;;;;;;14.57;7.20;;;;;;;18.38;45.92;98706.84;5093782;28;20095;-46
2023/04/18 08:52:20;;;;;;;12.20;8.82;;;;;;;18.80;44.21;98703.56;5093603;28;20562;-46
2023/04/18 08:54:47;;;;;;;11.27;7.63;;;;;;;19.09;43.22;98712.00;5093634;28;20024;-47
2023/04/18 08:57:25;;;;;;;15.95;7.00;;;;;;;19.19;43.00;98705.97;5093519;28;20031;-47
2023/04/18 08:59:52;;;;;;;20.92;8.07;;;;;;;19.13;43.02;98707.78;5093557;28;20077;-46
2023/04/18 09:02:22;;;;;;;9.50;6.78;;;;;;;19.26;42.81;98706.56;5093350;28;20055;-46
2023/04/18 09:04:51;;;;;;;18.08;7.60;;;;;;;20.34;41.90;98705.97;5093409;28;20047;-44
2023/04/18 09:07:27;;;;;;;10.18;7.35;;;;;;;21.98;39.48;98699.66;5093400;28;20023;-44
2023/04/18 09:09:55;;;;;;;13.38;6.85;;;;;;;22.56;37.65;98699.06;5092211;28;20064;-44
2023/04/18 09:12:24;;;;;;;19.85;7.00;;;;;;;22.56;36.69;98695.56;5108990;28;20026;-44
2023/04/18 09:14:56;;;;;;;21.15;7.53;;;;;;;22.24;37.10;98702.22;5093075;28;20016;-44
2023/04/18 09:17:44;;;;;;;16.98;7.15;;;;;;;21.97;37.85;98706.06;5075337;28;20074;-44
2023/04/18 09:20:14;;;;;;;12.30;7.07;;;;;;;21.51;37.77;98703.56;5093408;28;20024;-44
2023/04/18 09:22:49;;;;;;;18.98;7.65;;;;;;;20.95;38.44;98702.56;5108707;28;20060;-44
2023/04/18 09:25:36;;;;;;;16.55;7.53;;;;;;;20.54;38.94;98705.19;5075008;28;20046;-44
2023/04/18 09:28:04;;;;;;;20.42;8.38;;;;;;;20.02;39.55;98708.81;5093033;28;20092;-44
2023/04/18 09:30:40;;;;;;;11.98;7.07;;;;;;;19.71;40.46;98711.34;5092962;28;20052;-44
2023/04/18 09:33:08;;;;;;;26.08;8.13;;;;;;;19.81;40.30;98709.78;5091611;28;20020;-44
2023/04/18 09:35:35;;;;;;;13.05;7.85;;;;;;;20.11;39.61;98706.44;5092866;28;20028;-44
2023/04/18 09:38:02;;;;;;;10.93;6.70;;;;;;;20.58;38.89;98707.31;5108562;28;20020;-44
2023/04/18 09:40:28;;;;;;;12.38;7.32;;;;;;;21.10;38.22;98712.41;5092769;28;20058;-44
2023/04/18 09:42:54;;;;;;;19.30;7.65;;;;;;;21.10;37.76;98707.06;5092633;28;20052;-44
2023/04/18 09:45:20;;;;;;;17.65;7.97;;;;;;;21.08;37.95;98705.75;5092939;28;20065;-44
2023/04/18 09:47:46;;;;;;;11.55;6.90;;;;;;;22.18;37.57;98706.75;5091488;28;20019;-44
2023/04/18 09:50:12;;;;;;;11.50;7.05;;;;;;;24.48;34.10;98698.31;5092604;28;20428;-45
2023/04/18 09:52:40;;;;;;;15.88;7.10;;;;;;;25.10;31.90;98695.47;5108302;28;20024;-45
2023/04/18 09:55:08;;;;;;;18.85;7.65;;;;;;;24.96;31.36;98699.22;5108119;28;20409;-45
2023/04/18 09:57:40;;;;;;;10.70;6.97;;;;;;;25.03;31.23;98692.38;5108154;28;20024;-44
2023/04/18 10:00:18;;;;;;;16.80;6.90;;;;;;;24.81;31.90;98695.72;5108223;28;20110;-45
2023/04/18 10:03:20;;;;;;;9.27;6.68;;;;;;;24.67;31.86;98687.63;5092408;28;20024;-44
2023/04/18 10:05:46;;;;;;;8.07;6.38;;;;;;;25.05;31.28;98679.47;5087391;28;20035;-44
2023/04/18 10:08:13;;;;;;;7.93;6.32;;;;;;;25.65;30.90;98686.66;5107994;28;20084;-45
2023/04/18 10:10:39;;;;;;;11.02;5.53;;;;;;;26.35;29.67;98687.38;5092282;28;20588;-44
2023/04/18 10:13:10;;;;;;;13.98;6.80;;;;;;;26.79;29.32;98675.03;5090931;28;20027;-45
2023/04/18 10:15:36;;;;;;;10.80;6.22;;;;;;;27.62;28.07;98673.69;5092296;28;20028;-45
2023/04/18 10:18:08;;;;;;;6.30;5.70;;;;;;;27.51;27.32;98673.19;5107803;28;20110;-45
2023/04/18 10:20:34;;;;;;;9.43;6.72;;;;;;;26.87;27.99;98676.19;5092159;28;20020;-44
2023/04/18 10:23:35;;;;;;;10.48;6.40;;;;;;;26.59;28.73;98676.34;5092266;28;20457;-44
2023/04/18 10:26:07;;;;;;;6.38;5.78;;;;;;;26.11;28.59;98674.19;5092232;28;20024;-44
2023/04/18 10:28:55;;;;;;;7.40;5.53;;;;;;;25.47;29.38;98674.97;5090514;28;20020;-44
2023/04/18 10:31:26;;;;;;;9.52;5.85;;;;;;;25.98;29.55;98675.00;5073761;28;20097;-44
2023/04/18 10:33:57;;;;;;;7.97;5.55;;;;;;;27.65;27.74;98671.16;5092292;28;20057;-45
2023/04/18 10:36:23;;;;;;;6.10;5.50;;;;;;;29.38;25.81;98665.97;5107587;28;20024;-44
2023/04/18 10:38:54;;;;;;;11.27;6.45;;;;;;;29.91;24.93;98662.97;5091873;28;20097;-45
2023/04/18 10:41:31;;;;;;;10.93;5.63;;;;;;;30.23;25.01;98648.72;5090562;28;20093;-45
2023/04/18 10:46:33;;;;;;;6.28;5.68;;;;;;;31.06;23.43;98638.81;5092185;28;20102;-46
2023/04/18 10:49:20;;;;;;;10.30;4.97;;;;;;;31.49;22.87;98644.06;5073690;28;20035;-45
2023/04/18 10:51:48;;;;;;;8.10;5.80;;;;;;;30.33;23.15;98639.41;5091792;28;20020;-44
2023/04/18 10:54:45;;;;;;;9.18;6.05;;;;;;;28.47;24.73;98644.41;5091979;28;20095;-44
2023/04/18 10:57:12;;;;;;;7.90;5.43;;;;;;;28.10;25.86;98645.84;5107696;28;20074;-44
2023/04/18 10:59:40;;;;;;;9.00;5.30;;;;;;;28.96;25.28;98649.56;5091770;28;20026;-45
2023/04/18 11:02:30;;;;;;;10.40;5.65;;;;;;;30.25;24.61;98637.56;5090426;28;20526;-45
2023/04/18 11:04:58;;;;;;;9.95;6.22;;;;;;;31.08;23.19;98635.00;5091684;28;20024;-45
2023/04/18 11:07:34;;;;;;;9.75;5.00;;;;;;;31.61;22.36;98631.28;5091639;28;20371;-45
2023/04/18 11:10:00;;;;;;;6.82;5.13;;;;;;;31.57;22.33;98635.00;5091505;28;20589;-46
2023/04/18 11:12:37;;;;;;;8.13;5.95;;;;;;;31.69;21.81;98628.75;5091525;28;20017;-45
2023/04/18 11:15:10;;;;;;;8.88;5.40;;;;;;;31.17;22.49;98620.22;5091842;28;20020;-45
2023/04/18 11:17:38;;;;;;;6.07;5.25;;;;;;;31.35;22.51;98628.09;5091521;28;20023;-46
2023/04/18 11:20:12;;;;;;;8.30;5.65;;;;;;;31.23;23.03;98623.47;5091419;28;20556;-46
2023/04/18 11:22:55;;;;;;;5.35;4.95;;;;;;;30.51;23.00;98623.81;5091503;28;20017;-45
2023/04/18 11:25:33;;;;;;;9.48;5.45;;;;;;;28.51;24.74;98639.19;5091457;28;20035;-44
2023/04/18 11:28:00;;;;;;;10.07;5.75;;;;;;;26.78;26.06;98635.75;5091467;28;20036;-44
2023/04/18 11:30:30;;;;;;;7.05;6.38;;;;;;;25.21;28.22;98639.72;5106855;28;20058;-45
2023/04/18 11:32:55;;;;;;;11.10;6.40;;;;;;;23.92;30.29;98637.47;5091371;28;20504;-44